sensor_id;sensor_type;location;lat;lon;timestamp;temperature;humidity
4107;DHT22;21906;50.812;7.132;2023-03-14T18:31:31;7.90;54.00
4107;DHT22;21906;50.812;7.132;2023-03-14T18:33:59;8.00;53.70
4107;DHT22;21906;50.812;7.132;2023-03-14T18:36:25;7.90;52.10
4107;DHT22;21906;50.812;7.132;2023-03-14T18:38:51;7.90;53.50
4107;DHT22;21906;50.812;7.132;2023-03-14T18:41:21;7.90;54.30
4107;DHT22;21906;50.812;7.132;2023-03-14T18:43:50;7.90;53.60
4107;DHT22;21906;50.812;7.132;2023-03-14T18:46:18;7.90;53.40
4107;DHT22;21906;50.812;7.132;2023-03-14T18:48:45;7.80;54.40
4107;DHT22;21906;50.812;7.132;2023-03-14T18:51:13;7.90;54.40
4107;DHT22;21906;50.812;7.132;2023-03-14T18:53:43;7.90;54.90
4107;DHT22;21906;50.812;7.132;2023-03-14T18:56:10;7.90;55.00
4107;DHT22;21906;50.812;7.132;2023-03-14T18:58:37;7.80;54.70
4107;DHT22;21906;50.812;7.132;2023-03-14T19:01:03;7.70;54.20
4107;DHT22;21906;50.812;7.132;2023-03-14T19:03:30;7.60;54.40
4107;DHT22;21906;50.812;7.132;2023-03-14T19:05:57;7.60;55.50
4107;DHT22;21906;50.812;7.132;2023-03-14T19:08:24;7.50;54.20
4107;DHT22;21906;50.812;7.132;2023-03-14T19:10:52;7.50;54.00
4107;DHT22;21906;50.812;7.132;2023-03-14T19:13:19;7.40;54.50
4107;DHT22;21906;50.812;7.132;2023-03-14T19:15:45;7.50;54.80
4107;DHT22;21906;50.812;7.132;2023-03-14T19:18:11;7.50;54.70
4107;DHT22;21906;50.812;7.132;2023-03-14T19:20:38;7.50;55.40
4107;DHT22;21906;50.812;7.132;2023-03-14T19:23:04;7.40;54.40
4107;DHT22;21906;50.812;7.132;2023-03-14T19:25:30;7.50;55.00
4107;DHT22;21906;50.812;7.132;2023-03-14T19:27:55;7.40;54.30
4107;DHT22;21906;50.812;7.132;2023-03-14T19:30:21;7.30;54.50
4107;DHT22;21906;50.812;7.132;2023-03-14T19:32:47;7.30;53.70
4107;DHT22;21906;50.812;7.132;2023-03-14T19:35:13;7.20;52.90
4107;DHT22;21906;50.812;7.132;2023-03-14T19:37:38;7.30;54.00
4107;DHT22;21906;50.812;7.132;2023-03-14T19:40:05;7.30;52.90
4107;DHT22;21906;50.812;7.132;2023-03-14T19:42:33;7.30;52.00
4107;DHT22;21906;50.812;7.132;2023-03-14T19:44:59;7.20;53.40
4107;DHT22;21906;50.812;7.132;2023-03-14T19:47:24;7.20;53.40
4107;DHT22;21906;50.812;7.132;2023-03-14T19:49:50;7.10;53.30
4107;DHT22;21906;50.812;7.132;2023-03-14T19:52:16;7.10;53.10
4107;DHT22;21906;50.812;7.132;2023-03-14T19:54:42;7.20;54.00
4107;DHT22;21906;50.812;7.132;2023-03-14T19:57:08;7.20;53.40
4107;DHT22;21906;50.812;7.132;2023-03-14T19:59:34;7.20;53.10
4107;DHT22;21906;50.812;7.132;2023-03-14T20:01:59;7.10;53.20
4107;DHT22;21906;50.812;7.132;2023-03-14T20:04:25;7.20;52.90
4107;DHT22;21906;50.812;7.132;2023-03-14T20:06:52;7.10;52.90
4107;DHT22;21906;50.812;7.132;2023-03-14T20:09:21;7.10;52.40
4107;DHT22;21906;50.812;7.132;2023-03-14T20:11:47;7.00;51.30
4107;DHT22;21906;50.812;7.132;2023-03-14T20:14:13;7.00;51.60
4107;DHT22;21906;50.812;7.132;2023-03-14T20:16:42;6.90;52.20
4107;DHT22;21906;50.812;7.132;2023-03-14T20:19:10;6.90;52.80
4107;DHT22;21906;50.812;7.132;2023-03-14T20:21:36;6.90;52.60
4107;DHT22;21906;50.812;7.132;2023-03-14T20:24:03;7.00;52.90
4107;DHT22;21906;50.812;7.132;2023-03-14T20:26:29;7.00;52.60
4107;DHT22;21906;50.812;7.132;2023-03-14T20:28:55;6.90;52.60
4107;DHT22;21906;50.812;7.132;2023-03-14T20:31:21;7.00;53.00
4107;DHT22;21906;50.812;7.132;2023-03-14T20:33:47;7.00;53.50
4107;DHT22;21906;50.812;7.132;2023-03-14T20:36:13;7.00;54.10
4107;DHT22;21906;50.812;7.132;2023-03-14T20:38:39;7.10;52.50
4107;DHT22;21906;50.812;7.132;2023-03-14T20:41:04;7.00;52.50
4107;DHT22;21906;50.812;7.132;2023-03-14T20:43:32;6.90;53.40
4107;DHT22;21906;50.812;7.132;2023-03-14T20:45:59;6.90;53.50
4107;DHT22;21906;50.812;7.132;2023-03-14T20:48:26;6.90;53.30
4107;DHT22;21906;50.812;7.132;2023-03-14T20:50:52;6.90;53.70
4107;DHT22;21906;50.812;7.132;2023-03-14T20:53:18;6.80;53.30
4107;DHT22;21906;50.812;7.132;2023-03-14T20:55:45;6.70;54.10
4107;DHT22;21906;50.812;7.132;2023-03-14T20:58:11;6.90;53.90
4107;DHT22;21906;50.812;7.132;2023-03-14T21:00:38;6.80;54.40
4107;DHT22;21906;50.812;7.132;2023-03-14T21:03:04;6.80;54.50
4107;DHT22;21906;50.812;7.132;2023-03-14T21:05:32;6.80;54.40
4107;DHT22;21906;50.812;7.132;2023-03-14T21:07:57;6.60;54.30
4107;DHT22;21906;50.812;7.132;2023-03-14T21:10:23;6.50;54.80
4107;DHT22;21906;50.812;7.132;2023-03-14T21:12:49;6.60;54.60
4107;DHT22;21906;50.812;7.132;2023-03-14T21:15:14;6.60;54.90
4107;DHT22;21906;50.812;7.132;2023-03-14T21:17:41;6.80;54.20
4107;DHT22;21906;50.812;7.132;2023-03-14T21:20:11;6.80;54.10
4107;DHT22;21906;50.812;7.132;2023-03-14T21:22:37;6.70;54.00
4107;DHT22;21906;50.812;7.132;2023-03-14T21:25:04;6.50;54.80
4107;DHT22;21906;50.812;7.132;2023-03-14T21:27:29;6.30;54.90
4107;DHT22;21906;50.812;7.132;2023-03-14T21:29:55;6.40;55.00
4107;DHT22;21906;50.812;7.132;2023-03-14T21:32:21;6.40;55.40
4107;DHT22;21906;50.812;7.132;2023-03-14T21:34:47;6.40;55.30
4107;DHT22;21906;50.812;7.132;2023-03-14T21:37:14;6.40;55.70
4107;DHT22;21906;50.812;7.132;2023-03-14T21:39:40;6.40;55.40
4107;DHT22;21906;50.812;7.132;2023-03-14T21:42:06;6.30;55.30
4107;DHT22;21906;50.812;7.132;2023-03-14T21:44:36;6.40;55.60
4107;DHT22;21906;50.812;7.132;2023-03-14T21:47:06;6.40;55.80
4107;DHT22;21906;50.812;7.132;2023-03-14T21:49:32;6.40;55.70
4107;DHT22;21906;50.812;7.132;2023-03-14T21:52:07;6.40;55.60
4107;DHT22;21906;50.812;7.132;2023-03-14T21:54:33;6.50;55.20
4107;DHT22;21906;50.812;7.132;2023-03-14T21:56:59;6.60;55.30
4107;DHT22;21906;50.812;7.132;2023-03-14T21:59:25;6.50;56.00
4107;DHT22;21906;50.812;7.132;2023-03-14T22:01:51;6.60;56.30
4107;DHT22;21906;50.812;7.132;2023-03-14T22:04:21;6.60;56.60
4107;DHT22;21906;50.812;7.132;2023-03-14T22:06:51;6.40;57.10
4107;DHT22;21906;50.812;7.132;2023-03-14T22:09:17;6.40;57.40
4107;DHT22;21906;50.812;7.132;2023-03-14T22:11:43;6.30;57.90
4107;DHT22;21906;50.812;7.132;2023-03-14T22:14:08;6.30;58.10
4107;DHT22;21906;50.812;7.132;2023-03-14T22:16:34;6.30;58.30
4107;DHT22;21906;50.812;7.132;2023-03-14T22:19:00;6.20;58.70
4107;DHT22;21906;50.812;7.132;2023-03-14T22:21:25;6.20;59.10
4107;DHT22;21906;50.812;7.132;2023-03-14T22:23:51;6.20;59.50
4107;DHT22;21906;50.812;7.132;2023-03-14T22:26:17;6.10;60.10
4107;DHT22;21906;50.812;7.132;2023-03-14T22:28:42;5.90;60.90
4107;DHT22;21906;50.812;7.132;2023-03-14T22:31:09;5.80;61.90
4107;DHT22;21906;50.812;7.132;2023-03-14T22:33:35;5.70;62.50
4107;DHT22;21906;50.812;7.132;2023-03-14T22:36:00;5.60;63.10
4107;DHT22;21906;50.812;7.132;2023-03-14T22:38:26;5.60;63.50
4107;DHT22;21906;50.812;7.132;2023-03-14T22:40:52;5.70;63.70
4107;DHT22;21906;50.812;7.132;2023-03-14T22:43:18;5.70;63.80
4107;DHT22;21906;50.812;7.132;2023-03-14T22:45:44;5.70;63.90
4107;DHT22;21906;50.812;7.132;2023-03-14T22:48:10;5.50;64.60
4107;DHT22;21906;50.812;7.132;2023-03-14T22:50:39;5.60;64.60
4107;DHT22;21906;50.812;7.132;2023-03-14T22:53:04;5.60;64.70
4107;DHT22;21906;50.812;7.132;2023-03-14T22:55:30;5.50;64.90
4107;DHT22;21906;50.812;7.132;2023-03-14T22:57:56;5.50;65.00
4107;DHT22;21906;50.812;7.132;2023-03-14T23:00:23;5.60;64.70
4107;DHT22;21906;50.812;7.132;2023-03-14T23:02:49;5.40;65.00
4107;DHT22;21906;50.812;7.132;2023-03-14T23:05:15;5.50;64.80
4107;DHT22;21906;50.812;7.132;2023-03-14T23:07:40;5.50;64.90
4107;DHT22;21906;50.812;7.132;2023-03-14T23:10:06;5.40;64.80
4107;DHT22;21906;50.812;7.132;2023-03-14T23:12:32;5.50;65.00
4107;DHT22;21906;50.812;7.132;2023-03-14T23:14:58;5.50;64.80
4107;DHT22;21906;50.812;7.132;2023-03-14T23:17:24;5.50;64.80
4107;DHT22;21906;50.812;7.132;2023-03-14T23:19:51;5.50;64.80
4107;DHT22;21906;50.812;7.132;2023-03-14T23:22:18;5.50;65.00
4107;DHT22;21906;50.812;7.132;2023-03-14T23:24:43;5.50;64.60
4107;DHT22;21906;50.812;7.132;2023-03-14T23:27:13;5.40;64.50
4107;DHT22;21906;50.812;7.132;2023-03-14T23:29:39;5.40;64.60
4107;DHT22;21906;50.812;7.132;2023-03-14T23:32:05;5.40;64.70
4107;DHT22;21906;50.812;7.132;2023-03-14T23:34:31;5.30;64.90
4107;DHT22;21906;50.812;7.132;2023-03-14T23:36:57;5.20;65.00
4107;DHT22;21906;50.812;7.132;2023-03-14T23:39:22;5.40;64.70
4107;DHT22;21906;50.812;7.132;2023-03-14T23:41:48;5.40;64.50
4107;DHT22;21906;50.812;7.132;2023-03-14T23:44:13;5.40;64.20
4107;DHT22;21906;50.812;7.132;2023-03-14T23:46:39;5.40;64.20
4107;DHT22;21906;50.812;7.132;2023-03-14T23:49:05;5.30;64.70
4107;DHT22;21906;50.812;7.132;2023-03-14T23:51:30;5.20;65.00
4107;DHT22;21906;50.812;7.132;2023-03-14T23:53:56;5.20;65.10
4107;DHT22;21906;50.812;7.132;2023-03-14T23:56:22;5.20;65.10
4107;DHT22;21906;50.812;7.132;2023-03-14T23:58:47;5.20;65.30
